sensor_id;sensor_type;location;lat;lon;timestamp;P1;durP1;ratioP1;P2;durP2;ratioP2
57899;SDS011;60605;53.716;19.940;2022-08-25T00:03:17;9.60;;;5.80;;
57899;SDS011;60605;53.716;19.940;2022-08-25T00:08:23;8.20;;;5.40;;
57899;SDS011;60605;53.716;19.940;2022-08-25T00:13:27;11.20;;;6.30;;
57899;SDS011;60605;53.716;19.940;2022-08-25T00:18:31;10.10;;;6.50;;
57899;SDS011;60605;53.716;19.940;2022-08-25T00:23:35;13.10;;;6.60;;
57899;SDS011;60605;53.716;19.940;2022-08-25T00:28:38;13.70;;;6.80;;
57899;SDS011;60605;53.716;19.940;2022-08-25T00:33:42;12.00;;;6.50;;
57899;SDS011;60605;53.716;19.940;2022-08-25T00:38:47;10.00;;;5.70;;
57899;SDS011;60605;53.716;19.940;2022-08-25T00:43:53;8.40;;;5.30;;
57899;SDS011;60605;53.716;19.940;2022-08-25T00:49:03;10.70;;;5.90;;
57899;SDS011;60605;53.716;19.940;2022-08-25T00:54:18;13.40;;;5.50;;
57899;SDS011;60605;53.716;19.940;2022-08-25T00:59:25;8.90;;;5.90;;
57899;SDS011;60605;53.716;19.940;2022-08-25T01:04:30;11.00;;;5.70;;
57899;SDS011;60605;53.716;19.940;2022-08-25T01:09:34;11.70;;;6.60;;
57899;SDS011;60605;53.716;19.940;2022-08-25T01:14:39;11.10;;;5.60;;
57899;SDS011;60605;53.716;19.940;2022-08-25T01:19:43;9.10;;;5.80;;
57899;SDS011;60605;53.716;19.940;2022-08-25T01:24:49;8.60;;;5.90;;
57899;SDS011;60605;53.716;19.940;2022-08-25T01:30:01;12.40;;;5.70;;
57899;SDS011;60605;53.716;19.940;2022-08-25T01:35:05;10.40;;;5.90;;
57899;SDS011;60605;53.716;19.940;2022-08-25T01:40:09;9.90;;;5.50;;
57899;SDS011;60605;53.716;19.940;2022-08-25T01:45:13;12.50;;;5.40;;
57899;SDS011;60605;53.716;19.940;2022-08-25T01:50:17;8.20;;;5.10;;
57899;SDS011;60605;53.716;19.940;2022-08-25T01:55:21;9.10;;;4.80;;
57899;SDS011;60605;53.716;19.940;2022-08-25T02:00:25;9.50;;;5.00;;
57899;SDS011;60605;53.716;19.940;2022-08-25T02:05:28;7.70;;;4.80;;
57899;SDS011;60605;53.716;19.940;2022-08-25T02:10:34;9.60;;;5.00;;
57899;SDS011;60605;53.716;19.940;2022-08-25T02:15:39;12.00;;;5.30;;
57899;SDS011;60605;53.716;19.940;2022-08-25T02:20:51;9.30;;;5.60;;
57899;SDS011;60605;53.716;19.940;2022-08-25T02:25:55;10.90;;;5.00;;
57899;SDS011;60605;53.716;19.940;2022-08-25T02:30:59;8.50;;;4.70;;
57899;SDS011;60605;53.716;19.940;2022-08-25T02:36:03;14.00;;;5.60;;
57899;SDS011;60605;53.716;19.940;2022-08-25T02:41:11;10.30;;;5.50;;
57899;SDS011;60605;53.716;19.940;2022-08-25T02:46:21;9.00;;;5.20;;
57899;SDS011;60605;53.716;19.940;2022-08-25T02:51:26;6.00;;;5.30;;
57899;SDS011;60605;53.716;19.940;2022-08-25T02:56:32;7.60;;;5.10;;
57899;SDS011;60605;53.716;19.940;2022-08-25T03:01:35;7.70;;;4.80;;
57899;SDS011;60605;53.716;19.940;2022-08-25T03:06:39;9.60;;;5.20;;
57899;SDS011;60605;53.716;19.940;2022-08-25T03:11:42;12.90;;;5.60;;
57899;SDS011;60605;53.716;19.940;2022-08-25T03:16:46;7.10;;;5.70;;
57899;SDS011;60605;53.716;19.940;2022-08-25T03:21:50;12.20;;;5.80;;
57899;SDS011;60605;53.716;19.940;2022-08-25T03:26:54;8.80;;;6.20;;
57899;SDS011;60605;53.716;19.940;2022-08-25T03:31:58;7.40;;;5.80;;
57899;SDS011;60605;53.716;19.940;2022-08-25T03:37:03;7.70;;;5.90;;
57899;SDS011;60605;53.716;19.940;2022-08-25T03:42:07;11.70;;;5.90;;
57899;SDS011;60605;53.716;19.940;2022-08-25T03:47:11;9.60;;;6.30;;
57899;SDS011;60605;53.716;19.940;2022-08-25T03:52:14;12.60;;;6.30;;
57899;SDS011;60605;53.716;19.940;2022-08-25T03:57:20;11.90;;;6.60;;
57899;SDS011;60605;53.716;19.940;2022-08-25T04:02:23;8.00;;;6.10;;
57899;SDS011;60605;53.716;19.940;2022-08-25T04:07:27;9.60;;;6.20;;
57899;SDS011;60605;53.716;19.940;2022-08-25T04:12:30;10.40;;;6.50;;
57899;SDS011;60605;53.716;19.940;2022-08-25T04:17:36;10.50;;;6.80;;
57899;SDS011;60605;53.716;19.940;2022-08-25T04:22:41;10.70;;;6.50;;
57899;SDS011;60605;53.716;19.940;2022-08-25T04:27:46;13.70;;;6.80;;
57899;SDS011;60605;53.716;19.940;2022-08-25T04:32:50;11.80;;;6.50;;
57899;SDS011;60605;53.716;19.940;2022-08-25T04:37:53;8.60;;;6.00;;
57899;SDS011;60605;53.716;19.940;2022-08-25T04:42:56;10.00;;;5.50;;
57899;SDS011;60605;53.716;19.940;2022-08-25T04:48:00;9.90;;;5.90;;
57899;SDS011;60605;53.716;19.940;2022-08-25T04:53:04;10.10;;;5.70;;
57899;SDS011;60605;53.716;19.940;2022-08-25T04:58:07;14.90;;;6.00;;
57899;SDS011;60605;53.716;19.940;2022-08-25T05:03:18;10.10;;;5.30;;
57899;SDS011;60605;53.716;19.940;2022-08-25T05:08:21;9.30;;;4.50;;
57899;SDS011;60605;53.716;19.940;2022-08-25T05:13:25;8.60;;;4.80;;
57899;SDS011;60605;53.716;19.940;2022-08-25T05:18:29;8.50;;;5.30;;
57899;SDS011;60605;53.716;19.940;2022-08-25T05:23:34;13.60;;;6.10;;
57899;SDS011;60605;53.716;19.940;2022-08-25T05:28:38;11.30;;;6.50;;
57899;SDS011;60605;53.716;19.940;2022-08-25T05:33:45;10.80;;;6.00;;
57899;SDS011;60605;53.716;19.940;2022-08-25T05:38:49;8.40;;;6.00;;
57899;SDS011;60605;53.716;19.940;2022-08-25T05:43:53;14.20;;;6.30;;
57899;SDS011;60605;53.716;19.940;2022-08-25T05:48:56;12.00;;;5.60;;
57899;SDS011;60605;53.716;19.940;2022-08-25T05:53:59;12.90;;;6.30;;
57899;SDS011;60605;53.716;19.940;2022-08-25T05:59:03;9.70;;;5.60;;
57899;SDS011;60605;53.716;19.940;2022-08-25T06:04:11;13.90;;;6.20;;
57899;SDS011;60605;53.716;19.940;2022-08-25T06:09:15;12.50;;;6.10;;
57899;SDS011;60605;53.716;19.940;2022-08-25T06:14:19;16.70;;;5.80;;
57899;SDS011;60605;53.716;19.940;2022-08-25T06:19:22;8.60;;;5.40;;
57899;SDS011;60605;53.716;19.940;2022-08-25T06:24:26;8.10;;;4.90;;
57899;SDS011;60605;53.716;19.940;2022-08-25T06:29:31;10.00;;;5.30;;
57899;SDS011;60605;53.716;19.940;2022-08-25T06:34:36;9.80;;;5.70;;
57899;SDS011;60605;53.716;19.940;2022-08-25T06:39:39;10.00;;;5.60;;
57899;SDS011;60605;53.716;19.940;2022-08-25T06:44:44;8.50;;;5.10;;
57899;SDS011;60605;53.716;19.940;2022-08-25T06:49:48;11.70;;;4.70;;
57899;SDS011;60605;53.716;19.940;2022-08-25T06:54:51;15.60;;;5.50;;
57899;SDS011;60605;53.716;19.940;2022-08-25T06:59:56;12.20;;;5.30;;
57899;SDS011;60605;53.716;19.940;2022-08-25T07:04:59;9.20;;;4.30;;
57899;SDS011;60605;53.716;19.940;2022-08-25T07:10:04;9.30;;;4.30;;
57899;SDS011;60605;53.716;19.940;2022-08-25T07:15:10;9.10;;;4.50;;
57899;SDS011;60605;53.716;19.940;2022-08-25T07:20:23;9.00;;;4.50;;
57899;SDS011;60605;53.716;19.940;2022-08-25T07:25:32;8.30;;;4.70;;
57899;SDS011;60605;53.716;19.940;2022-08-25T07:30:37;7.00;;;4.00;;
57899;SDS011;60605;53.716;19.940;2022-08-25T07:35:41;8.40;;;4.20;;
57899;SDS011;60605;53.716;19.940;2022-08-25T07:40:45;8.20;;;3.90;;
57899;SDS011;60605;53.716;19.940;2022-08-25T07:45:58;8.30;;;3.80;;
57899;SDS011;60605;53.716;19.940;2022-08-25T07:51:09;10.60;;;3.90;;
57899;SDS011;60605;53.716;19.940;2022-08-25T07:56:16;8.70;;;4.70;;
57899;SDS011;60605;53.716;19.940;2022-08-25T08:01:20;13.10;;;5.30;;
57899;SDS011;60605;53.716;19.940;2022-08-25T08:06:25;9.40;;;4.70;;
57899;SDS011;60605;53.716;19.940;2022-08-25T08:11:29;10.50;;;4.80;;
57899;SDS011;60605;53.716;19.940;2022-08-25T08:16:38;11.30;;;4.00;;
57899;SDS011;60605;53.716;19.940;2022-08-25T08:21:43;9.30;;;4.30;;
57899;SDS011;60605;53.716;19.940;2022-08-25T08:26:48;6.90;;;4.30;;
57899;SDS011;60605;53.716;19.940;2022-08-25T08:32:01;9.30;;;4.40;;
57899;SDS011;60605;53.716;19.940;2022-08-25T08:37:07;6.70;;;4.10;;
57899;SDS011;60605;53.716;19.940;2022-08-25T08:48:00;8.30;;;3.80;;
57899;SDS011;60605;53.716;19.940;2022-08-25T08:58:18;6.70;;;3.70;;
57899;SDS011;60605;53.716;19.940;2022-08-25T09:03:31;11.40;;;4.90;;
57899;SDS011;60605;53.716;19.940;2022-08-25T09:08:37;8.70;;;4.20;;
57899;SDS011;60605;53.716;19.940;2022-08-25T09:13:59;10.40;;;4.70;;
57899;SDS011;60605;53.716;19.940;2022-08-25T09:24:34;10.40;;;4.80;;
57899;SDS011;60605;53.716;19.940;2022-08-25T09:35:20;10.40;;;5.00;;
57899;SDS011;60605;53.716;19.940;2022-08-25T09:40:25;12.90;;;4.90;;
57899;SDS011;60605;53.716;19.940;2022-08-25T09:45:32;13.20;;;4.90;;
57899;SDS011;60605;53.716;19.940;2022-08-25T09:50:44;11.00;;;4.80;;
57899;SDS011;60605;53.716;19.940;2022-08-25T09:55:55;12.90;;;5.20;;
57899;SDS011;60605;53.716;19.940;2022-08-25T10:01:05;8.00;;;4.10;;
57899;SDS011;60605;53.716;19.940;2022-08-25T10:06:18;15.00;;;5.00;;
57899;SDS011;60605;53.716;19.940;2022-08-25T10:11:35;13.00;;;4.60;;
57899;SDS011;60605;53.716;19.940;2022-08-25T10:16:42;17.10;;;5.30;;
57899;SDS011;60605;53.716;19.940;2022-08-25T10:22:10;16.80;;;5.30;;
57899;SDS011;60605;53.716;19.940;2022-08-25T10:38:41;10.60;;;4.60;;
57899;SDS011;60605;53.716;19.940;2022-08-25T10:44:05;13.90;;;4.80;;
57899;SDS011;60605;53.716;19.940;2022-08-25T10:49:54;12.20;;;4.40;;
57899;SDS011;60605;53.716;19.940;2022-08-25T10:55:19;14.20;;;5.30;;
57899;SDS011;60605;53.716;19.940;2022-08-25T11:01:01;13.10;;;4.70;;
57899;SDS011;60605;53.716;19.940;2022-08-25T11:06:12;13.60;;;4.70;;
57899;SDS011;60605;53.716;19.940;2022-08-25T11:22:25;15.30;;;5.00;;
57899;SDS011;60605;53.716;19.940;2022-08-25T11:27:52;18.60;;;5.50;;
57899;SDS011;60605;53.716;19.940;2022-08-25T11:33:06;17.90;;;5.60;;
57899;SDS011;60605;53.716;19.940;2022-08-25T11:43:54;18.00;;;5.30;;
57899;SDS011;60605;53.716;19.940;2022-08-25T11:49:38;11.90;;;5.20;;
57899;SDS011;60605;53.716;19.940;2022-08-25T11:55:12;19.50;;;5.50;;
57899;SDS011;60605;53.716;19.940;2022-08-25T12:11:12;18.60;;;6.00;;
57899;SDS011;60605;53.716;19.940;2022-08-25T12:38:14;12.70;;;5.20;;
57899;SDS011;60605;53.716;19.940;2022-08-25T12:43:36;13.70;;;5.20;;
57899;SDS011;60605;53.716;19.940;2022-08-25T12:54:23;19.00;;;5.00;;
57899;SDS011;60605;53.716;19.940;2022-08-25T12:59:46;21.30;;;6.40;;
57899;SDS011;60605;53.716;19.940;2022-08-25T13:10:54;17.60;;;5.50;;
57899;SDS011;60605;53.716;19.940;2022-08-25T13:16:01;16.10;;;5.20;;
57899;SDS011;60605;53.716;19.940;2022-08-25T13:21:16;17.30;;;5.60;;
57899;SDS011;60605;53.716;19.940;2022-08-25T13:26:28;20.00;;;6.00;;
57899;SDS011;60605;53.716;19.940;2022-08-25T13:31:35;19.10;;;6.00;;
57899;SDS011;60605;53.716;19.940;2022-08-25T13:36:45;20.80;;;5.90;;
57899;SDS011;60605;53.716;19.940;2022-08-25T13:42:13;33.30;;;6.80;;
57899;SDS011;60605;53.716;19.940;2022-08-25T13:47:32;21.10;;;5.80;;
57899;SDS011;60605;53.716;19.940;2022-08-25T13:52:55;16.60;;;5.80;;
57899;SDS011;60605;53.716;19.940;2022-08-25T13:58:00;25.10;;;6.00;;
57899;SDS011;60605;53.716;19.940;2022-08-25T14:03:32;20.30;;;5.90;;
57899;SDS011;60605;53.716;19.940;2022-08-25T14:09:11;19.70;;;5.40;;
57899;SDS011;60605;53.716;19.940;2022-08-25T14:19:24;17.90;;;5.50;;
57899;SDS011;60605;53.716;19.940;2022-08-25T14:24:32;19.90;;;5.50;;
57899;SDS011;60605;53.716;19.940;2022-08-25T14:29:42;16.70;;;5.50;;
57899;SDS011;60605;53.716;19.940;2022-08-25T14:34:45;19.20;;;5.40;;
57899;SDS011;60605;53.716;19.940;2022-08-25T14:39:49;20.50;;;6.10;;
57899;SDS011;60605;53.716;19.940;2022-08-25T14:44:54;18.50;;;5.80;;
57899;SDS011;60605;53.716;19.940;2022-08-25T14:49:58;19.80;;;6.30;;
57899;SDS011;60605;53.716;19.940;2022-08-25T14:55:04;19.90;;;6.00;;
57899;SDS011;60605;53.716;19.940;2022-08-25T15:00:08;20.40;;;6.70;;
57899;SDS011;60605;53.716;19.940;2022-08-25T15:05:20;16.60;;;5.90;;
57899;SDS011;60605;53.716;19.940;2022-08-25T15:10:27;23.80;;;5.50;;
57899;SDS011;60605;53.716;19.940;2022-08-25T15:15:32;22.50;;;6.20;;
57899;SDS011;60605;53.716;19.940;2022-08-25T15:20:54;26.90;;;6.20;;
57899;SDS011;60605;53.716;19.940;2022-08-25T15:25:58;24.90;;;6.40;;
57899;SDS011;60605;53.716;19.940;2022-08-25T15:31:07;24.10;;;5.60;;
57899;SDS011;60605;53.716;19.940;2022-08-25T15:36:11;23.80;;;6.50;;
57899;SDS011;60605;53.716;19.940;2022-08-25T15:41:17;24.40;;;5.80;;
57899;SDS011;60605;53.716;19.940;2022-08-25T15:46:21;29.40;;;6.20;;
57899;SDS011;60605;53.716;19.940;2022-08-25T15:51:27;20.90;;;5.50;;
57899;SDS011;60605;53.716;19.940;2022-08-25T15:56:31;18.60;;;5.40;;
57899;SDS011;60605;53.716;19.940;2022-08-25T16:01:34;27.60;;;6.00;;
57899;SDS011;60605;53.716;19.940;2022-08-25T16:06:39;27.60;;;5.60;;
57899;SDS011;60605;53.716;19.940;2022-08-25T16:11:42;23.40;;;6.00;;
57899;SDS011;60605;53.716;19.940;2022-08-25T16:16:58;26.50;;;5.90;;
57899;SDS011;60605;53.716;19.940;2022-08-25T16:22:02;24.40;;;6.30;;
57899;SDS011;60605;53.716;19.940;2022-08-25T16:27:11;24.70;;;5.80;;
57899;SDS011;60605;53.716;19.940;2022-08-25T16:32:16;26.20;;;6.40;;
57899;SDS011;60605;53.716;19.940;2022-08-25T16:37:20;29.50;;;5.80;;
57899;SDS011;60605;53.716;19.940;2022-08-25T16:42:24;26.00;;;5.70;;
57899;SDS011;60605;53.716;19.940;2022-08-25T16:47:30;24.70;;;5.70;;
57899;SDS011;60605;53.716;19.940;2022-08-25T16:52:36;32.20;;;8.60;;
57899;SDS011;60605;53.716;19.940;2022-08-25T16:58:00;25.70;;;5.90;;
57899;SDS011;60605;53.716;19.940;2022-08-25T17:03:07;28.60;;;6.00;;
57899;SDS011;60605;53.716;19.940;2022-08-25T17:08:10;32.60;;;8.20;;
57899;SDS011;60605;53.716;19.940;2022-08-25T17:18:36;28.80;;;7.70;;
57899;SDS011;60605;53.716;19.940;2022-08-25T17:23:41;22.40;;;6.50;;
57899;SDS011;60605;53.716;19.940;2022-08-25T17:28:46;29.40;;;9.40;;
57899;SDS011;60605;53.716;19.940;2022-08-25T17:33:49;26.20;;;9.00;;
57899;SDS011;60605;53.716;19.940;2022-08-25T17:38:54;16.70;;;6.00;;
57899;SDS011;60605;53.716;19.940;2022-08-25T17:43:58;22.40;;;6.80;;
57899;SDS011;60605;53.716;19.940;2022-08-25T17:49:03;22.80;;;5.80;;
57899;SDS011;60605;53.716;19.940;2022-08-25T17:54:07;22.10;;;5.70;;
57899;SDS011;60605;53.716;19.940;2022-08-25T17:59:10;24.80;;;6.00;;
57899;SDS011;60605;53.716;19.940;2022-08-25T18:04:14;18.80;;;5.30;;
57899;SDS011;60605;53.716;19.940;2022-08-25T18:09:19;23.20;;;6.30;;
57899;SDS011;60605;53.716;19.940;2022-08-25T18:14:22;21.70;;;6.10;;
57899;SDS011;60605;53.716;19.940;2022-08-25T18:19:27;20.70;;;6.70;;
57899;SDS011;60605;53.716;19.940;2022-08-25T18:24:31;22.40;;;8.10;;
57899;SDS011;60605;53.716;19.940;2022-08-25T18:29:37;20.30;;;7.40;;
57899;SDS011;60605;53.716;19.940;2022-08-25T18:34:42;18.90;;;7.70;;
57899;SDS011;60605;53.716;19.940;2022-08-25T18:39:45;22.00;;;6.90;;
57899;SDS011;60605;53.716;19.940;2022-08-25T18:45:09;22.60;;;7.60;;
57899;SDS011;60605;53.716;19.940;2022-08-25T18:50:14;19.60;;;9.00;;
57899;SDS011;60605;53.716;19.940;2022-08-25T18:55:24;22.00;;;6.50;;
57899;SDS011;60605;53.716;19.940;2022-08-25T19:00:29;23.80;;;5.90;;
57899;SDS011;60605;53.716;19.940;2022-08-25T19:05:35;24.80;;;6.30;;
57899;SDS011;60605;53.716;19.940;2022-08-25T19:10:44;22.70;;;7.20;;
57899;SDS011;60605;53.716;19.940;2022-08-25T19:15:53;17.00;;;6.60;;
57899;SDS011;60605;53.716;19.940;2022-08-25T19:20:57;17.50;;;5.80;;
57899;SDS011;60605;53.716;19.940;2022-08-25T19:26:08;16.40;;;6.80;;
57899;SDS011;60605;53.716;19.940;2022-08-25T19:31:20;20.70;;;6.50;;
57899;SDS011;60605;53.716;19.940;2022-08-25T19:36:35;23.00;;;6.70;;
57899;SDS011;60605;53.716;19.940;2022-08-25T19:41:40;18.20;;;5.90;;
57899;SDS011;60605;53.716;19.940;2022-08-25T19:46:46;24.80;;;7.20;;
57899;SDS011;60605;53.716;19.940;2022-08-25T19:51:53;19.60;;;6.40;;
57899;SDS011;60605;53.716;19.940;2022-08-25T19:57:00;23.40;;;7.00;;
57899;SDS011;60605;53.716;19.940;2022-08-25T20:02:20;20.80;;;6.80;;
57899;SDS011;60605;53.716;19.940;2022-08-25T20:07:31;23.30;;;6.60;;
57899;SDS011;60605;53.716;19.940;2022-08-25T20:12:35;23.70;;;6.60;;
57899;SDS011;60605;53.716;19.940;2022-08-25T20:17:40;39.80;;;8.60;;
57899;SDS011;60605;53.716;19.940;2022-08-25T20:22:47;27.00;;;8.00;;
57899;SDS011;60605;53.716;19.940;2022-08-25T20:27:52;25.20;;;7.00;;
57899;SDS011;60605;53.716;19.940;2022-08-25T20:32:58;30.60;;;7.50;;
57899;SDS011;60605;53.716;19.940;2022-08-25T20:38:03;29.20;;;7.90;;
57899;SDS011;60605;53.716;19.940;2022-08-25T20:43:07;22.00;;;7.10;;
57899;SDS011;60605;53.716;19.940;2022-08-25T20:48:13;16.20;;;6.20;;
57899;SDS011;60605;53.716;19.940;2022-08-25T20:53:17;18.90;;;6.80;;
57899;SDS011;60605;53.716;19.940;2022-08-25T20:58:26;18.70;;;6.80;;
57899;SDS011;60605;53.716;19.940;2022-08-25T21:03:30;18.10;;;6.30;;
57899;SDS011;60605;53.716;19.940;2022-08-25T21:08:37;20.30;;;6.60;;
57899;SDS011;60605;53.716;19.940;2022-08-25T21:13:48;28.10;;;6.40;;
57899;SDS011;60605;53.716;19.940;2022-08-25T21:18:51;20.20;;;7.50;;
57899;SDS011;60605;53.716;19.940;2022-08-25T21:23:55;27.20;;;8.60;;
57899;SDS011;60605;53.716;19.940;2022-08-25T21:28:59;27.30;;;9.40;;
57899;SDS011;60605;53.716;19.940;2022-08-25T21:34:05;23.00;;;8.10;;
57899;SDS011;60605;53.716;19.940;2022-08-25T21:39:10;25.50;;;7.20;;
57899;SDS011;60605;53.716;19.940;2022-08-25T21:44:14;20.40;;;7.90;;
57899;SDS011;60605;53.716;19.940;2022-08-25T21:49:18;18.70;;;7.70;;
57899;SDS011;60605;53.716;19.940;2022-08-25T21:54:22;24.00;;;8.30;;
57899;SDS011;60605;53.716;19.940;2022-08-25T21:59:27;23.70;;;8.20;;
57899;SDS011;60605;53.716;19.940;2022-08-25T22:04:32;22.60;;;8.20;;
57899;SDS011;60605;53.716;19.940;2022-08-25T22:09:36;20.60;;;8.60;;
57899;SDS011;60605;53.716;19.940;2022-08-25T22:14:41;26.60;;;9.40;;
57899;SDS011;60605;53.716;19.940;2022-08-25T22:19:45;16.70;;;8.00;;
57899;SDS011;60605;53.716;19.940;2022-08-25T22:24:48;20.70;;;7.90;;
57899;SDS011;60605;53.716;19.940;2022-08-25T22:29:53;23.00;;;9.20;;
57899;SDS011;60605;53.716;19.940;2022-08-25T22:34:57;25.00;;;8.20;;
57899;SDS011;60605;53.716;19.940;2022-08-25T22:40:01;16.10;;;7.90;;
57899;SDS011;60605;53.716;19.940;2022-08-25T22:45:06;23.10;;;8.40;;
57899;SDS011;60605;53.716;19.940;2022-08-25T22:50:11;13.90;;;7.30;;
57899;SDS011;60605;53.716;19.940;2022-08-25T22:55:18;18.90;;;7.40;;
57899;SDS011;60605;53.716;19.940;2022-08-25T23:00:23;16.70;;;8.20;;
57899;SDS011;60605;53.716;19.940;2022-08-25T23:05:27;21.30;;;7.90;;
57899;SDS011;60605;53.716;19.940;2022-08-25T23:10:31;22.80;;;7.80;;
57899;SDS011;60605;53.716;19.940;2022-08-25T23:15:34;14.20;;;7.70;;
57899;SDS011;60605;53.716;19.940;2022-08-25T23:20:38;18.40;;;7.60;;
57899;SDS011;60605;53.716;19.940;2022-08-25T23:26:03;16.30;;;9.00;;
57899;SDS011;60605;53.716;19.940;2022-08-25T23:31:08;19.70;;;7.70;;
57899;SDS011;60605;53.716;19.940;2022-08-25T23:36:14;20.80;;;8.30;;
57899;SDS011;60605;53.716;19.940;2022-08-25T23:41:20;22.50;;;8.50;;
57899;SDS011;60605;53.716;19.940;2022-08-25T23:46:25;14.40;;;7.90;;
57899;SDS011;60605;53.716;19.940;2022-08-25T23:51:32;15.80;;;7.20;;
57899;SDS011;60605;53.716;19.940;2022-08-25T23:56:39;17.40;;;8.00;;
